Big Bear Station Historical Data
Daily Summary for April 14, 2017 Units:  English    Metric   Both
« Previous Day
Next Day »
Daily Weekly Monthly Yearly Custom
  High: Low: Average:
Temperature: 60.1 °F 27.0 °F 42.6 °F
Dew Point: 39.5 °F 11.2 °F 23.4 °F
Humidity: 82 % 19 % 49 %
Wind Speed: 7.3 mph 0.0 mph 2.5 mph
Wind Gust: -999.0 mph - -
Wind:- - SW
Pressure: 30.10 in 30.00 in -
Precipitation: 0.00 in    
Historical Graphs
 
 
Tabular Data for April 14, 2017
Time Temperature Dew Point Pressure Wind Wind Speed Wind Gust Humidity Rainfall Rate (Hourly)
00:02 31.8 °F 22.8 °F 30.04 in Calm   -999.0 mph 69 % 0 in
00:18 32.2 °F 21.8 °F 30.04 in SE 1.7 mph -999.0 mph 65 % 0 in
00:33 32.0 °F 19.3 °F 30.04 in ESE 2.7 mph -999.0 mph 59 % 0 in
00:49 32.2 °F 20.3 °F 30.04 in South 1.7 mph -999.0 mph 61 % 0 in
01:04 31.6 °F 17.7 °F 30.04 in SSE 1.7 mph -999.0 mph 56 % 0 in
01:19 32.0 °F 16.3 °F 30.03 in Calm   -999.0 mph 52 % 0 in
01:34 31.6 °F 16.4 °F 30.02 in South 1.1 mph -999.0 mph 53 % 0 in
01:50 31.8 °F 17.0 °F 30.02 in SE 2.7 mph -999.0 mph 54 % 0 in
02:05 30.7 °F 15.1 °F 30.02 in SSE 2.7 mph -999.0 mph 52 % 0 in
02:20 30.7 °F 14.2 °F 30.01 in SSE 2.7 mph -999.0 mph 50 % 0 in
02:35 30.6 °F 15.0 °F 30.01 in SSE 2.7 mph -999.0 mph 52 % 0 in
02:51 31.1 °F 14.6 °F 30.01 in SSE 2.7 mph -999.0 mph 50 % 0 in
03:06 31.5 °F 15.0 °F 30.01 in SSE 2.2 mph -999.0 mph 50 % 0 in
03:22 30.2 °F 13.3 °F 30.01 in South 1.7 mph -999.0 mph 49 % 0 in
03:37 29.3 °F 13.4 °F 30.00 in SSE 1.7 mph -999.0 mph 51 % 0 in
03:53 28.9 °F 15.6 °F 30.00 in South 2.2 mph -999.0 mph 57 % 0 in
04:08 28.6 °F 16.1 °F 30.00 in South 2.2 mph -999.0 mph 59 % 0 in
04:23 28.4 °F 15.5 °F 30.00 in South 1.7 mph -999.0 mph 58 % 0 in
04:38 27.9 °F 16.9 °F 30.00 in SSE 1.7 mph -999.0 mph 63 % 0 in
04:54 27.1 °F 17.6 °F 30.00 in SSE 2.2 mph -999.0 mph 67 % 0 in
05:09 27.3 °F 18.8 °F 30.00 in Calm   -999.0 mph 70 % 0 in
05:24 27.7 °F 20.5 °F 30.00 in South 2.7 mph -999.0 mph 74 % 0 in
05:39 27.3 °F 20.1 °F 30.00 in South 1.7 mph -999.0 mph 74 % 0 in
05:55 27.5 °F 20.6 °F 30.00 in South 1.7 mph -999.0 mph 75 % 0 in
06:10 27.1 °F 21.5 °F 30.00 in South 1.7 mph -999.0 mph 79 % 0 in
06:25 27.3 °F 22.5 °F 30.00 in South 2.2 mph -999.0 mph 82 % 0 in
06:40 27.7 °F 22.9 °F 30.00 in SSW 2.7 mph -999.0 mph 82 % 0 in
06:55 27.0 °F 21.4 °F 30.00 in SSE 1.7 mph -999.0 mph 79 % 0 in
07:11 28.0 °F 20.5 °F 30.00 in South 1.1 mph -999.0 mph 73 % 0 in
07:26 29.8 °F 19.8 °F 30.01 in South 2.2 mph -999.0 mph 66 % 0 in
07:41 29.8 °F 18.7 °F 30.01 in South 1.1 mph -999.0 mph 63 % 0 in
07:56 30.7 °F 21.0 °F 30.01 in Calm   -999.0 mph 67 % 0 in
08:11 31.8 °F 22.4 °F 30.01 in Calm   -999.0 mph 68 % 0 in
08:27 33.1 °F 19.9 °F 30.02 in Calm   -999.0 mph 58 % 0 in
08:42 36.7 °F 20.7 °F 30.02 in Calm   -999.0 mph 52 % 0 in
08:57 40.1 °F 19.9 °F 30.01 in NW 1.7 mph -999.0 mph 44 % 0 in
09:12 42.1 °F 18.9 °F 30.01 in Calm   -999.0 mph 39 % 0 in
09:27 45.1 °F 17.0 °F 30.02 in NNE 2.7 mph -999.0 mph 32 % 0 in
09:43 47.7 °F 22.0 °F 30.02 in Calm   -999.0 mph 36 % 0 in
09:58 48.2 °F 14.9 °F 30.02 in NNE 1.1 mph -999.0 mph 26 % 0 in
10:13 51.1 °F 11.4 °F 30.02 in NNE 2.2 mph -999.0 mph 20 % 0 in
10:28 52.3 °F 11.2 °F 30.02 in NW 1.7 mph -999.0 mph 19 % 0 in
10:44 54.9 °F 22.4 °F 30.03 in WNW 3.7 mph -999.0 mph 28 % 0 in
11:00 54.9 °F 19.7 °F 30.03 in NNW 6.8 mph -999.0 mph 25 % 0 in
11:15 55.8 °F 22.3 °F 30.03 in NNE 2.7 mph -999.0 mph 27 % 0 in
11:30 54.7 °F 21.3 °F 30.03 in WNW 5.3 mph -999.0 mph 27 % 0 in
11:45 56.7 °F 26.4 °F 30.03 in SSW 1.7 mph -999.0 mph 31 % 0 in
12:00 56.1 °F 25.9 °F 30.03 in SW 5.3 mph -999.0 mph 31 % 0 in
12:16 57.4 °F 27.0 °F 30.03 in NW 4.2 mph -999.0 mph 31 % 0 in
12:31 59.4 °F 31.7 °F 30.03 in WNW 4.7 mph -999.0 mph 35 % 0 in
12:46 58.1 °F 32.6 °F 30.03 in NNW 7.3 mph -999.0 mph 38 % 0 in
13:02 57.7 °F 34.8 °F 30.03 in WNW 5.3 mph -999.0 mph 42 % 0 in
13:17 57.6 °F 38.0 °F 30.04 in NW 5.3 mph -999.0 mph 48 % 0 in
13:33 58.5 °F 36.7 °F 30.04 in NW 5.3 mph -999.0 mph 44 % 0 in
13:48 59.0 °F 37.1 °F 30.04 in NW 5.3 mph -999.0 mph 44 % 0 in
14:03 58.8 °F 38.1 °F 30.04 in NW 4.7 mph -999.0 mph 46 % 0 in
14:19 58.5 °F 36.7 °F 30.04 in NW 6.8 mph -999.0 mph 44 % 0 in
14:34 59.0 °F 39.3 °F 30.04 in WSW 3.7 mph -999.0 mph 48 % 0 in
14:49 57.6 °F 37.0 °F 30.05 in North 3.2 mph -999.0 mph 46 % 0 in
15:05 58.6 °F 38.4 °F 30.05 in NW 4.7 mph -999.0 mph 47 % 0 in
15:20 58.6 °F 39.5 °F 30.05 in NNW 4.2 mph -999.0 mph 49 % 0 in
15:35 58.5 °F 37.8 °F 30.05 in NNW 4.2 mph -999.0 mph 46 % 0 in
15:50 57.7 °F 36.5 °F 30.05 in NNW 4.7 mph -999.0 mph 45 % 0 in
16:05 57.9 °F 36.1 °F 30.05 in NNW 5.3 mph -999.0 mph 44 % 0 in
16:21 57.2 °F 35.5 °F 30.05 in NW 4.2 mph -999.0 mph 44 % 0 in
16:36 58.3 °F 25.3 °F 30.05 in North 3.7 mph -999.0 mph 28 % 0 in
16:51 60.1 °F 30.9 °F 30.05 in NW 4.7 mph -999.0 mph 33 % 0 in
17:07 59.5 °F 28.8 °F 30.06 in NW 4.7 mph -999.0 mph 31 % 0 in
17:22 58.5 °F 28.0 °F 30.05 in NNW 5.3 mph -999.0 mph 31 % 0 in
17:38 58.5 °F 27.2 °F 30.06 in NW 5.3 mph -999.0 mph 30 % 0 in
17:53 57.0 °F 25.9 °F 30.06 in NW 3.7 mph -999.0 mph 30 % 0 in
18:08 57.0 °F 23.3 °F 30.06 in NW 3.2 mph -999.0 mph 27 % 0 in
18:23 56.1 °F 23.4 °F 30.06 in North 1.1 mph -999.0 mph 28 % 0 in
18:39 54.1 °F 22.5 °F 30.06 in Calm   -999.0 mph 29 % 0 in
18:54 51.3 °F 21.7 °F 30.06 in Calm   -999.0 mph 31 % 0 in
19:09 48.4 °F 21.3 °F 30.06 in SSE 1.7 mph -999.0 mph 34 % 0 in
19:24 46.2 °F 21.3 °F 30.06 in South 2.2 mph -999.0 mph 37 % 0 in
19:40 44.6 °F 22.3 °F 30.06 in SSE 1.1 mph -999.0 mph 41 % 0 in
19:55 42.8 °F 21.8 °F 30.07 in South 1.7 mph -999.0 mph 43 % 0 in
20:10 41.7 °F 21.9 °F 30.07 in South 2.2 mph -999.0 mph 45 % 0 in
20:25 40.8 °F 20.6 °F 30.07 in Calm   -999.0 mph 44 % 0 in
20:40 40.1 °F 21.5 °F 30.07 in South 1.7 mph -999.0 mph 47 % 0 in
20:56 39.7 °F 24.4 °F 30.08 in South 3.2 mph -999.0 mph 54 % 0 in
21:11 39.2 °F 23.9 °F 30.08 in South 1.7 mph -999.0 mph 54 % 0 in
21:26 38.3 °F 22.2 °F 30.08 in Calm   -999.0 mph 52 % 0 in
21:41 37.4 °F 20.4 °F 30.08 in SSW 2.7 mph -999.0 mph 50 % 0 in
21:56 36.9 °F 23.5 °F 30.08 in South 2.7 mph -999.0 mph 58 % 0 in
22:12 36.7 °F 24.9 °F 30.08 in Calm   -999.0 mph 62 % 0 in
22:27 36.5 °F 24.7 °F 30.09 in SE 2.2 mph -999.0 mph 62 % 0 in
22:43 36.0 °F 23.5 °F 30.09 in Calm   -999.0 mph 60 % 0 in
22:58 35.2 °F 23.9 °F 30.09 in Calm   -999.0 mph 63 % 0 in
23:13 34.9 °F 24.7 °F 30.09 in SSW 1.7 mph -999.0 mph 66 % 0 in
23:28 34.5 °F 23.9 °F 30.10 in South 1.7 mph -999.0 mph 65 % 0 in
23:43 34.5 °F 24.3 °F 30.10 in South 2.2 mph -999.0 mph 66 % 0 in
23:59 34.5 °F 24.3 °F 30.10 in ESE 2.2 mph -999.0 mph 66 % 0 in
Big Bear CA Weather
Compliments of Weather Underground - 1.5 mb